Hyde, Pennsylvania
Current Conditions -  °F | °C
As of 8:54 PM on Monday 24 Nov 2014 (Local Time) from KFIG Reporting Station
Clear Clear  
Wind Chill: 55°   Ceiling: Unl
Heat Index: 55°   Visibility: 10mi
Dew Point: 41°   Wind: 15mph
Humidity: 59%   Direction: 240°WSW
Pressure: 29.67"   Gusts: 21mph
Location:  41.01°N, 78.47°W
Report Text: KFIG 250154Z AUTO 24013G18KT 10SM CLR 13/05 A2967 RMK AO2 SLP045 T01280050
Loading
Personal Weather Stations






























Interactive Weather Map New forecast layout! Learn more

10-Day Weather Forecast

Advertisements
Track Severe Weather on mobile